Pagina principale
METAR-TAF:

METAR-TAF

Aeroporti :

Aeroporto di Čita-Kadala

Čita, Russia

latitudine: 52-05N, longitudine: 113-29E, altezza: 685 m

Osservazione

Il bollettino è stato emesso 25 minuti fa, alle 23:00 UTC
Vento 8 kt da nord-est
Temperature 10°C
Umidità 53%
Pressione 1011 hPa
Visibilità 10 km o più

METAR: UIAA 242300Z 04004MPS 9999 NSC 10/01 Q1011 R29/70D NOSIG RMK QFE700/0933

Ora: 08:25 (23:25 UTC)

Previsione

Il bollettino è stato emesso 3 ore e 25 minuti fa, alle 20:00 UTC
Previsione valida dal 24 alle 21 UTC al 25 alle 21 UTC
Vento 6 kt da nord/nord-est
Visibilità 10 km o più
Nubi sparse ad un'altezza di 3300 ft, Cumulonembo.
Temporaneamente
dal 25 alle 03 UTC al 25 alle 12 UTC
Vento 16 kt da direzioni variabili
temporale, pioggia debole

TAF: UIAA 242000Z 2421/2521 03003MPS 9999 SCT033CB TEMPO 2503/2512 VRB08MPS -TSRA

Osservazioni e previsioni meteorologiche di più di 4000 aeroporti (messaggi METAR e TAF).

Le stazioni disponibili sono rappresentate dai dischi gialli e rossi sulla carta.

Puntare il mouse per vedere il nome della stazione.

Clicca sopra per visualizzare le osservazioni e previsioni meteorologiche.

Per cambiare la mappa : fare clic sui pulsanti verdi con una croce nera per ingrandire, il pulsante verde con un trattino per diminuire, o sulla freccia verde per le mappe adiacenti.


METAR-TAF: